Wetterdaten: Woche 26.09.16 - 02.10.16 (KW39)
Datum Zeit Temperatur Luftfeuchte Luftdruck Niederschlag Windrichtung Sonnenschein Solar Wind
26.09.2016 00:00 12,7 C 95 % 1019,4 hPa 0,0 l/m N 0,00 h 0 W/m 0,0 km/h (0 Bft)
26.09.2016 01:00 12,6 C 95 % 1019,3 hPa 0,0 l/m N 0,00 h 0 W/m 0,3 km/h (0 Bft)
26.09.2016 02:00 12,6 C 95 % 1019,4 hPa 0,0 l/m N 0,00 h 0 W/m 0,5 km/h (0 Bft)
26.09.2016 03:00 12,3 C 96 % 1019,2 hPa 0,0 l/m N 0,00 h 0 W/m 0,0 km/h (0 Bft)
26.09.2016 04:00 11,5 C 97 % 1019,2 hPa 0,0 l/m N 0,00 h 0 W/m 0,0 km/h (0 Bft)
26.09.2016 05:00 11,0 C 97 % 1019,2 hPa 0,0 l/m N 0,00 h 0 W/m 0,0 km/h (0 Bft)
26.09.2016 06:00 10,7 C 98 % 1019,4 hPa 0,0 l/m N 0,00 h 0 W/m 0,0 km/h (0 Bft)
26.09.2016 07:00 10,7 C 98 % 1019,6 hPa 0,0 l/m N 0,58 h 31 W/m 0,0 km/h (0 Bft)
26.09.2016 08:00 11,4 C 98 % 1019,7 hPa 0,0 l/m N 0,67 h 138 W/m 0,0 km/h (0 Bft)
26.09.2016 09:00 13,6 C 96 % 1019,7 hPa 0,0 l/m N 1,00 h 341 W/m 0,8 km/h (0 Bft)
26.09.2016 10:00 16,2 C 86 % 1019,6 hPa 0,0 l/m S 1,00 h 414 W/m 2,7 km/h (1 Bft)
26.09.2016 11:00 17,9 C 79 % 1019,6 hPa 0,0 l/m O 0,83 h 580 W/m 6,3 km/h (2 Bft)
26.09.2016 12:00 19,2 C 74 % 1019,2 hPa 0,0 l/m N-NO 0,75 h 561 W/m 7,8 km/h (2 Bft)
26.09.2016 13:00 20,1 C 71 % 1018,7 hPa 0,0 l/m N-NO 0,75 h 530 W/m 12,5 km/h (3 Bft)
26.09.2016 14:00 21,0 C 65 % 1018,1 hPa 0,0 l/m NO 0,83 h 503 W/m 14,0 km/h (3 Bft)
26.09.2016 15:00 20,9 C 64 % 1017,7 hPa 0,0 l/m NO 0,50 h 328 W/m 14,1 km/h (3 Bft)
26.09.2016 16:00 21,3 C 61 % 1017,4 hPa 0,0 l/m O-NO 0,92 h 314 W/m 13,8 km/h (3 Bft)
26.09.2016 17:00 20,7 C 62 % 1017,3 hPa 0,0 l/m O-NO 0,50 h 158 W/m 13,2 km/h (3 Bft)
26.09.2016 18:00 19,5 C 68 % 1017,8 hPa 0,0 l/m O-NO 0,00 h 41 W/m 8,7 km/h (2 Bft)
26.09.2016 19:00 17,4 C 80 % 1018,3 hPa 0,0 l/m N-NO 0,08 h 6 W/m 9,1 km/h (2 Bft)
26.09.2016 20:00 16,0 C 85 % 1018,9 hPa 0,0 l/m NO 0,00 h 0 W/m 5,9 km/h (2 Bft)
26.09.2016 21:00 14,4 C 91 % 1019,4 hPa 0,0 l/m NO 0,00 h 0 W/m 5,1 km/h (1 Bft)
26.09.2016 22:00 13,5 C 94 % 1019,6 hPa 0,0 l/m N-NO 0,00 h 0 W/m 6,8 km/h (2 Bft)
26.09.2016 23:00 12,8 C 96 % 1019,6 hPa 0,0 l/m N-NO 0,00 h 0 W/m 7,6 km/h (2 Bft)
27.09.2016 00:00 12,3 C 97 % 1019,6 hPa 0,0 l/m N 0,00 h 0 W/m 3,1 km/h (1 Bft)
27.09.2016 01:00 12,2 C 97 % 1019,5 hPa 0,0 l/m N 0,00 h 0 W/m 0,3 km/h (0 Bft)
27.09.2016 02:00 12,1 C 97 % 1019,8 hPa 0,0 l/m N 0,00 h 0 W/m 0,0 km/h (0 Bft)
27.09.2016 03:00 12,1 C 98 % 1020,0 hPa 0,6 l/m N 0,00 h 0 W/m 0,3 km/h (0 Bft)
27.09.2016 04:00 12,5 C 98 % 1020,5 hPa 0,2 l/m N-NW 0,00 h 0 W/m 5,3 km/h (1 Bft)
27.09.2016 05:00 12,4 C 98 % 1020,1 hPa 9,0 l/m N-NW 0,00 h 0 W/m 7,5 km/h (2 Bft)
27.09.2016 06:00 12,4 C 98 % 1020,6 hPa 0,0 l/m W 0,00 h 0 W/m 2,7 km/h (1 Bft)
27.09.2016 07:00 11,9 C 98 % 1021,7 hPa 0,2 l/m N 0,00 h 10 W/m 0,5 km/h (0 Bft)
27.09.2016 08:00 11,8 C 98 % 1022,1 hPa 0,0 l/m N 0,00 h 39 W/m 0,0 km/h (0 Bft)
27.09.2016 09:00 12,5 C 98 % 1022,7 hPa 0,0 l/m W 0,00 h 137 W/m 2,1 km/h (1 Bft)
27.09.2016 10:00 14,1 C 97 % 1023,2 hPa 0,0 l/m NO 0,50 h 320 W/m 8,0 km/h (2 Bft)
27.09.2016 11:00 15,6 C 91 % 1023,6 hPa 0,0 l/m O-NO 0,58 h 474 W/m 9,0 km/h (2 Bft)
27.09.2016 12:00 17,8 C 79 % 1023,6 hPa 0,0 l/m O-SO 1,00 h 703 W/m 8,4 km/h (2 Bft)
27.09.2016 13:00 18,5 C 74 % 1023,6 hPa 0,0 l/m O-SO 1,00 h 583 W/m 8,6 km/h (2 Bft)
27.09.2016 14:00 18,6 C 72 % 1023,4 hPa 0,0 l/m O-SO 0,75 h 478 W/m 6,8 km/h (2 Bft)
27.09.2016 15:00 19,1 C 68 % 1023,5 hPa 0,0 l/m O 0,50 h 325 W/m 7,6 km/h (2 Bft)
27.09.2016 16:00 18,8 C 70 % 1023,5 hPa 0,0 l/m O 0,67 h 303 W/m 2,9 km/h (1 Bft)
27.09.2016 17:00 19,1 C 69 % 1023,7 hPa 0,0 l/m O 0,58 h 166 W/m 10,9 km/h (2 Bft)
27.09.2016 18:00 17,3 C 79 % 1024,3 hPa 0,0 l/m N 0,08 h 39 W/m 0,7 km/h (0 Bft)
27.09.2016 19:00 14,6 C 90 % 1025,0 hPa 0,0 l/m N 0,00 h 6 W/m 0,1 km/h (0 Bft)
27.09.2016 20:00 13,1 C 94 % 1025,6 hPa 0,0 l/m N 0,00 h 0 W/m 0,0 km/h (0 Bft)
27.09.2016 21:00 12,4 C 96 % 1026,1 hPa 0,0 l/m N 0,00 h 0 W/m 0,5 km/h (0 Bft)
27.09.2016 22:00 11,8 C 97 % 1026,2 hPa 0,0 l/m N 0,00 h 0 W/m 0,0 km/h (0 Bft)
27.09.2016 23:00 11,3 C 98 % 1026,2 hPa 0,0 l/m N 0,00 h 0 W/m 0,0 km/h (0 Bft)
28.09.2016 00:00 10,8 C 98 % 1026,3 hPa 0,0 l/m N 0,00 h 0 W/m 0,0 km/h (0 Bft)
28.09.2016 01:00 10,1 C 98 % 1026,5 hPa 0,0 l/m N 0,00 h 0 W/m 0,0 km/h (0 Bft)
28.09.2016 02:00 9,4 C 98 % 1026,9 hPa 0,0 l/m N 0,00 h 0 W/m 0,0 km/h (0 Bft)
28.09.2016 03:00 8,7 C 98 % 1026,9 hPa 0,0 l/m N 0,00 h 0 W/m 0,0 km/h (0 Bft)
28.09.2016 04:00 8,9 C 99 % 1026,9 hPa 0,0 l/m N 0,00 h 0 W/m 0,0 km/h (0 Bft)
28.09.2016 05:00 8,5 C 99 % 1027,4 hPa 0,2 l/m N 0,00 h 0 W/m 0,0 km/h (0 Bft)
28.09.2016 06:00 8,0 C 99 % 1027,3 hPa 0,0 l/m N 0,00 h 0 W/m 0,0 km/h (0 Bft)
28.09.2016 07:00 8,9 C 100 % 1027,7 hPa 0,0 l/m N 0,08 h 20 W/m 0,0 km/h (0 Bft)
28.09.2016 08:00 10,4 C 100 % 1028,2 hPa 0,0 l/m O 0,00 h 56 W/m 1,7 km/h (1 Bft)
28.09.2016 09:00 11,3 C 100 % 1028,5 hPa 0,0 l/m O 0,00 h 120 W/m 7,1 km/h (2 Bft)
28.09.2016 10:00 12,1 C 100 % 1028,8 hPa 0,0 l/m S-SW 0,00 h 182 W/m 11,4 km/h (2 Bft)
28.09.2016 11:00 13,5 C 100 % 1029,0 hPa 0,0 l/m S-SW 0,25 h 312 W/m 13,4 km/h (3 Bft)
28.09.2016 12:00 15,5 C 95 % 1028,4 hPa 0,0 l/m S-SW 0,42 h 393 W/m 12,9 km/h (3 Bft)
28.09.2016 13:00 18,6 C 82 % 1027,8 hPa 0,0 l/m SW 1,00 h 627 W/m 12,5 km/h (3 Bft)
28.09.2016 14:00 19,7 C 71 % 1027,1 hPa 0,0 l/m W-SW 1,00 h 520 W/m 16,8 km/h (3 Bft)
28.09.2016 15:00 19,8 C 68 % 1026,6 hPa 0,0 l/m W-SW 1,00 h 426 W/m 18,6 km/h (3 Bft)
28.09.2016 16:00 20,0 C 66 % 1026,3 hPa 0,0 l/m W-SW 1,00 h 314 W/m 15,6 km/h (3 Bft)
28.09.2016 17:00 18,9 C 70 % 1026,4 hPa 0,0 l/m W-SW 0,67 h 145 W/m 13,4 km/h (3 Bft)
28.09.2016 18:00 17,6 C 77 % 1026,5 hPa 0,0 l/m W-SW 0,08 h 39 W/m 10,9 km/h (2 Bft)
28.09.2016 19:00 16,1 C 80 % 1026,8 hPa 0,0 l/m W-SW 0,00 h 6 W/m 9,3 km/h (2 Bft)
28.09.2016 20:00 14,8 C 84 % 1027,1 hPa 0,0 l/m W-SW 0,00 h 0 W/m 2,5 km/h (1 Bft)
28.09.2016 21:00 12,9 C 92 % 1027,4 hPa 0,0 l/m N 0,00 h 0 W/m 0,8 km/h (0 Bft)
28.09.2016 22:00 12,4 C 94 % 1027,3 hPa 0,0 l/m W-SW 0,00 h 0 W/m 0,4 km/h (0 Bft)
28.09.2016 23:00 11,5 C 96 % 1027,3 hPa 0,0 l/m N 0,00 h 0 W/m 0,0 km/h (0 Bft)
29.09.2016 00:00 10,9 C 97 % 1027,3 hPa 0,0 l/m N 0,00 h 0 W/m 0,0 km/h (0 Bft)
29.09.2016 01:00 10,6 C 98 % 1026,7 hPa 0,0 l/m N 0,00 h 0 W/m 0,0 km/h (0 Bft)
29.09.2016 02:00 10,3 C 98 % 1026,1 hPa 0,0 l/m N 0,00 h 0 W/m 0,0 km/h (0 Bft)
29.09.2016 03:00 10,3 C 98 % 1025,5 hPa 0,0 l/m N 0,00 h 0 W/m 0,0 km/h (0 Bft)
29.09.2016 04:00 9,8 C 98 % 1025,1 hPa 0,0 l/m N 0,00 h 0 W/m 0,0 km/h (0 Bft)
29.09.2016 05:00 9,4 C 99 % 1024,6 hPa 0,0 l/m N 0,00 h 0 W/m 0,0 km/h (0 Bft)
29.09.2016 06:00 9,3 C 99 % 1024,1 hPa 0,0 l/m N 0,00 h 0 W/m 0,0 km/h (0 Bft)
29.09.2016 07:00 9,3 C 99 % 1023,8 hPa 0,0 l/m N 0,17 h 16 W/m 0,0 km/h (0 Bft)
29.09.2016 08:00 10,5 C 99 % 1023,9 hPa 0,0 l/m W-SW 0,58 h 120 W/m 1,3 km/h (1 Bft)
29.09.2016 09:00 12,7 C 97 % 1023,8 hPa 0,0 l/m S-SO 0,92 h 288 W/m 9,9 km/h (2 Bft)
29.09.2016 10:00 15,2 C 91 % 1023,4 hPa 0,0 l/m SW 1,00 h 452 W/m 14,9 km/h (3 Bft)
29.09.2016 11:00 18,1 C 82 % 1022,5 hPa 0,0 l/m S-SW 0,92 h 548 W/m 15,8 km/h (3 Bft)
29.09.2016 12:00 19,7 C 73 % 1021,7 hPa 0,0 l/m SW 1,00 h 608 W/m 19,7 km/h (3 Bft)
29.09.2016 13:00 20,8 C 63 % 1020,9 hPa 0,0 l/m W-SW 1,00 h 615 W/m 22,9 km/h (4 Bft)
29.09.2016 14:00 21,4 C 58 % 1019,9 hPa 0,0 l/m W 1,00 h 569 W/m 24,8 km/h (4 Bft)
29.09.2016 15:00 21,9 C 58 % 1019,1 hPa 0,0 l/m W-SW 1,00 h 467 W/m 23,2 km/h (4 Bft)
29.09.2016 16:00 21,6 C 58 % 1018,5 hPa 0,0 l/m W-SW 1,00 h 346 W/m 19,4 km/h (3 Bft)
29.09.2016 17:00 21,0 C 61 % 1017,9 hPa 0,0 l/m W-SW 0,75 h 165 W/m 17,8 km/h (3 Bft)
29.09.2016 18:00 19,3 C 65 % 1017,7 hPa 0,0 l/m W-SW 0,00 h 27 W/m 15,0 km/h (3 Bft)
29.09.2016 19:00 17,7 C 70 % 1017,5 hPa 0,0 l/m W-SW 0,00 h 7 W/m 12,4 km/h (3 Bft)
29.09.2016 20:00 17,1 C 72 % 1017,4 hPa 0,0 l/m W-SW 0,00 h 0 W/m 14,0 km/h (3 Bft)
29.09.2016 21:00 15,9 C 78 % 1017,4 hPa 0,0 l/m W-SW 0,00 h 0 W/m 7,4 km/h (2 Bft)
29.09.2016 22:00 16,1 C 78 % 1017,2 hPa 0,0 l/m W-SW 0,00 h 0 W/m 12,8 km/h (3 Bft)
29.09.2016 23:00 15,0 C 81 % 1017,2 hPa 0,0 l/m W-SW 0,00 h 0 W/m 5,8 km/h (2 Bft)
30.09.2016 00:00 12,7 C 89 % 1017,2 hPa 0,0 l/m N 0,00 h 0 W/m 0,0 km/h (0 Bft)
30.09.2016 01:00 11,8 C 92 % 1017,1 hPa 0,0 l/m N 0,00 h 0 W/m 0,4 km/h (0 Bft)
30.09.2016 02:00 11,2 C 93 % 1016,9 hPa 0,0 l/m W-SW 0,00 h 0 W/m 1,3 km/h (1 Bft)
30.09.2016 03:00 10,8 C 94 % 1016,4 hPa 0,0 l/m W-SW 0,00 h 0 W/m 1,6 km/h (1 Bft)
30.09.2016 04:00 11,8 C 90 % 1015,8 hPa 0,0 l/m SW 0,00 h 0 W/m 10,9 km/h (2 Bft)
30.09.2016 05:00 12,2 C 86 % 1015,5 hPa 0,0 l/m SW 0,00 h 0 W/m 8,9 km/h (2 Bft)
30.09.2016 06:00 10,6 C 92 % 1015,5 hPa 0,0 l/m N 0,00 h 0 W/m 0,4 km/h (0 Bft)
30.09.2016 07:00 10,2 C 94 % 1015,6 hPa 0,0 l/m N 0,33 h 19 W/m 0,4 km/h (0 Bft)
30.09.2016 08:00 11,4 C 93 % 1015,8 hPa 0,0 l/m S-SW 0,58 h 126 W/m 3,7 km/h (1 Bft)
30.09.2016 09:00 14,3 C 87 % 1015,7 hPa 0,0 l/m SW 0,92 h 318 W/m 6,2 km/h (2 Bft)
30.09.2016 10:00 17,0 C 76 % 1015,8 hPa 0,0 l/m SW 1,00 h 452 W/m 14,1 km/h (3 Bft)
30.09.2016 11:00 19,0 C 65 % 1015,5 hPa 0,0 l/m W-SW 0,92 h 553 W/m 18,5 km/h (3 Bft)
30.09.2016 12:00 20,4 C 60 % 1015,0 hPa 0,0 l/m W-SW 1,00 h 608 W/m 18,4 km/h (3 Bft)
30.09.2016 13:00 21,4 C 56 % 1014,5 hPa 0,0 l/m W-SW 1,00 h 608 W/m 20,1 km/h (4 Bft)
30.09.2016 14:00 22,0 C 53 % 1013,9 hPa 0,0 l/m W-SW 1,00 h 552 W/m 20,5 km/h (4 Bft)
30.09.2016 15:00 22,3 C 52 % 1013,5 hPa 0,0 l/m W 1,00 h 458 W/m 17,8 km/h (3 Bft)
30.09.2016 16:00 21,9 C 52 % 1013,1 hPa 0,0 l/m W-SW 1,00 h 327 W/m 15,8 km/h (3 Bft)
30.09.2016 17:00 20,9 C 57 % 1012,8 hPa 0,0 l/m SW 0,58 h 141 W/m 7,9 km/h (2 Bft)
30.09.2016 18:00 18,4 C 69 % 1012,8 hPa 0,0 l/m N 0,00 h 22 W/m 1,7 km/h (1 Bft)
30.09.2016 19:00 15,6 C 81 % 1013,0 hPa 0,0 l/m N 0,00 h 0 W/m 0,0 km/h (0 Bft)
30.09.2016 20:00 13,8 C 88 % 1013,3 hPa 0,0 l/m N 0,00 h 0 W/m 0,3 km/h (0 Bft)
30.09.2016 21:00 12,7 C 90 % 1013,3 hPa 0,0 l/m N 0,00 h 0 W/m 0,0 km/h (0 Bft)
30.09.2016 22:00 11,9 C 92 % 1013,3 hPa 0,0 l/m N 0,00 h 0 W/m 0,0 km/h (0 Bft)
30.09.2016 23:00 11,3 C 93 % 1012,7 hPa 0,0 l/m N 0,00 h 0 W/m 0,0 km/h (0 Bft)
01.10.2016 00:00 11,1 C 94 % 1012,3 hPa 0,0 l/m N 0,00 h 0 W/m 0,0 km/h (0 Bft)
01.10.2016 01:00 10,8 C 94 % 1011,8 hPa 0,0 l/m N 0,00 h 0 W/m 0,0 km/h (0 Bft)
01.10.2016 02:00 10,2 C 95 % 1011,4 hPa 0,0 l/m N 0,00 h 0 W/m 0,0 km/h (0 Bft)
01.10.2016 03:00 9,6 C 96 % 1011,0 hPa 0,0 l/m SW 0,00 h 0 W/m 0,4 km/h (0 Bft)
01.10.2016 04:00 8,9 C 96 % 1010,6 hPa 0,0 l/m N 0,00 h 0 W/m 0,0 km/h (0 Bft)
01.10.2016 05:00 8,5 C 97 % 1010,3 hPa 0,0 l/m N 0,00 h 0 W/m 0,0 km/h (0 Bft)
01.10.2016 06:00 8,1 C 97 % 1010,3 hPa 0,0 l/m N 0,00 h 0 W/m 0,0 km/h (0 Bft)
01.10.2016 07:00 8,1 C 97 % 1010,3 hPa 0,0 l/m N 0,00 h 17 W/m 0,0 km/h (0 Bft)
01.10.2016 08:00 9,3 C 98 % 1010,5 hPa 0,0 l/m N 0,67 h 117 W/m 0,0 km/h (0 Bft)
01.10.2016 09:00 11,1 C 95 % 1010,5 hPa 0,0 l/m N 0,17 h 165 W/m 0,4 km/h (0 Bft)
01.10.2016 10:00 14,1 C 90 % 1010,8 hPa 0,0 l/m S-SW 0,75 h 291 W/m 4,4 km/h (1 Bft)
01.10.2016 11:00 17,0 C 78 % 1010,5 hPa 0,0 l/m S-SO 0,92 h 402 W/m 9,4 km/h (2 Bft)
01.10.2016 12:00 18,3 C 75 % 1010,3 hPa 0,0 l/m S-SW 1,00 h 456 W/m 11,2 km/h (2 Bft)
01.10.2016 13:00 20,0 C 67 % 1009,9 hPa 0,0 l/m W-SW 1,00 h 568 W/m 12,2 km/h (2 Bft)
01.10.2016 14:00 20,2 C 62 % 1009,2 hPa 0,0 l/m W-SW 0,33 h 320 W/m 10,9 km/h (2 Bft)
01.10.2016 15:00 19,0 C 64 % 1009,3 hPa 0,0 l/m W-SW 0,00 h 184 W/m 14,5 km/h (3 Bft)
01.10.2016 16:00 18,2 C 71 % 1009,5 hPa 0,0 l/m W-SW 0,00 h 112 W/m 12,4 km/h (3 Bft)
01.10.2016 17:00 17,7 C 75 % 1009,9 hPa 0,0 l/m W-SW 0,00 h 53 W/m 10,9 km/h (2 Bft)
01.10.2016 18:00 16,0 C 76 % 1010,3 hPa 0,0 l/m W 0,00 h 16 W/m 14,6 km/h (3 Bft)
01.10.2016 19:00 15,3 C 77 % 1010,9 hPa 0,0 l/m W-SW 0,00 h 5 W/m 13,4 km/h (3 Bft)
01.10.2016 20:00 14,8 C 82 % 1011,4 hPa 0,4 l/m W-SW 0,00 h 0 W/m 13,1 km/h (3 Bft)
01.10.2016 21:00 13,5 C 92 % 1011,8 hPa 0,8 l/m SW 0,00 h 0 W/m 9,8 km/h (2 Bft)
01.10.2016 22:00 12,6 C 95 % 1012,2 hPa 0,0 l/m SW 0,00 h 0 W/m 10,8 km/h (2 Bft)
01.10.2016 23:00 12,5 C 97 % 1012,5 hPa 0,0 l/m SW 0,00 h 0 W/m 13,2 km/h (3 Bft)
02.10.2016 00:00 12,4 C 98 % 1012,4 hPa 0,0 l/m SW 0,00 h 0 W/m 10,2 km/h (2 Bft)
02.10.2016 01:00 12,3 C 98 % 1012,6 hPa 0,0 l/m SW 0,00 h 0 W/m 5,9 km/h (2 Bft)
02.10.2016 02:00 12,2 C 98 % 1012,4 hPa 0,0 l/m N 0,00 h 0 W/m 0,0 km/h (0 Bft)
02.10.2016 03:00 12,1 C 98 % 1012,0 hPa 0,2 l/m N 0,00 h 0 W/m 0,0 km/h (0 Bft)
02.10.2016 04:00 11,9 C 98 % 1011,6 hPa 0,0 l/m N 0,00 h 0 W/m 0,4 km/h (0 Bft)
02.10.2016 05:00 11,9 C 98 % 1011,5 hPa 0,6 l/m SW 0,00 h 0 W/m 2,1 km/h (1 Bft)
02.10.2016 06:00 11,8 C 98 % 1011,6 hPa 0,4 l/m SW 0,00 h 0 W/m 0,9 km/h (0 Bft)
02.10.2016 07:00 12,0 C 98 % 1011,9 hPa 0,0 l/m SW 0,00 h 9 W/m 4,5 km/h (1 Bft)
02.10.2016 08:00 12,2 C 98 % 1012,2 hPa 0,0 l/m N 0,00 h 22 W/m 0,8 km/h (0 Bft)
02.10.2016 09:00 12,0 C 97 % 1012,6 hPa 1,0 l/m SW 0,00 h 79 W/m 7,9 km/h (2 Bft)
02.10.2016 10:00 12,2 C 96 % 1013,0 hPa 0,6 l/m W 0,00 h 118 W/m 10,7 km/h (2 Bft)
02.10.2016 11:00 12,0 C 94 % 1013,4 hPa 0,4 l/m W 0,00 h 121 W/m 14,1 km/h (3 Bft)
02.10.2016 12:00 12,4 C 95 % 1013,7 hPa 0,2 l/m W-SW 0,00 h 199 W/m 9,4 km/h (2 Bft)
02.10.2016 13:00 12,7 C 92 % 1013,8 hPa 0,6 l/m W 0,00 h 70 W/m 12,2 km/h (2 Bft)
02.10.2016 14:00 12,4 C 94 % 1013,8 hPa 0,0 l/m W-SW 0,00 h 168 W/m 12,5 km/h (3 Bft)
02.10.2016 15:00 13,0 C 86 % 1013,7 hPa 0,0 l/m W-SW 0,08 h 212 W/m 14,4 km/h (3 Bft)
02.10.2016 16:00 13,5 C 81 % 1013,8 hPa 0,0 l/m W-SW 0,08 h 137 W/m 14,1 km/h (3 Bft)
02.10.2016 17:00 13,2 C 85 % 1014,1 hPa 0,0 l/m SW 0,17 h 93 W/m 10,1 km/h (2 Bft)
02.10.2016 18:00 12,2 C 89 % 1014,8 hPa 0,0 l/m SW 0,17 h 29 W/m 11,5 km/h (2 Bft)
02.10.2016 19:00 11,1 C 89 % 1015,8 hPa 0,0 l/m W-SW 0,00 h 0 W/m 7,6 km/h (2 Bft)
02.10.2016 20:00 9,5 C 83 % 1016,8 hPa 0,0 l/m W-SW 0,00 h 0 W/m 6,0 km/h (2 Bft)
02.10.2016 21:00 8,7 C 81 % 1017,7 hPa 0,0 l/m W-SW 0,00 h 0 W/m 9,1 km/h (2 Bft)
02.10.2016 22:00 8,8 C 78 % 1018,4 hPa 0,0 l/m W 0,00 h 0 W/m 12,4 km/h (3 Bft)
02.10.2016 23:00 8,6 C 78 % 1019,0 hPa 0,0 l/m W 0,00 h 0 W/m 11,6 km/h (2 Bft)
Min-Datum _ 28.09.16 30.09.16 01.10.16 - - - - 26.09.16
_ Min-Zeit 06:20 15:30 14:35 - - - - 00:00
Minimum _ 7,8 C 50 % 1009,0 hPa - - - - 0,0 km/h (0 Bft)
Max-Datum _ 30.09.16 28.09.16 28.09.16 27.09.16 - 26.09.16 27.09.16 29.09.16
_ Max-Zeit 15:30 06:50 11:10 05:15 - 07:25 12:10 13:30
Maximum _ 22,6 C 100 % 1029,1 hPa 9,0 l/m - 0,08 h 782 W/m 29,0 km/h
W-SW (5 Bft)
Durchschnitt _ 14,1 C 86 % 1018,6 hPa #15,4 l/m W-SW #43:35 h 259 W/m 6,7 km/h (2 Bft)